Piuma, Brazil
Current Conditions -  °F | °C
As of 10:00 PM on Wednesday 28 Jan 2015 (Local Time) from SBVT Reporting Station
Clear Clear  
Wind Chill: 79°   Ceiling: Unl
Heat Index: NA   Visibility: 6mi
Dew Point: 82°   Wind: 7mph
Humidity: NA   Direction: 20°NNE
Pressure: 29.97"   Gusts: NA
Location:  20.84°S, 40.72°W
Report Text: SBVT 290000Z 02006KT CAVOK 26/28 Q1015
Loading
Personal Weather Stations






























Interactive Weather Map New forecast layout! Learn more

10-Day Weather Forecast

Advertisements
Track Severe Weather on mobile